Accueil
METAR-TAF:

METAR-TAF

Aéroports :

Aéroport international Hang Nadim

Batam, Indonésie

latitude: 01-07-15N, longitude: 104-07-07E, altitude: 38 m

Observation

Le bulletin a été fait il y a 59 minutes, à 18:00 UTC
Vent 4 kt de sud-est
Température 28°C
Humidité 84%
Pression 1010 hPa
Visibilité 10 km ou plus
Quelques nuages à une hauteur de 1400 ft

METAR: WIDD 241800Z 13004KT 9999 FEW014 28/25 Q1010 NOSIG

Heure: 01:59 (18:59 UTC)

Prévision

Le bulletin a été fait il y a 1 heure et 59 minutes, à 17:00 UTC
Prévision valable du 24 à 18 UTC au 25 à 18 UTC
Vent 6 kt de sud/sud-est
Visibilité 10 km ou plus
Nuages épars à une hauteur de 1400 ft

TAF: WIDD 241700Z 2418/2518 16006KT 9999 SCT014

Observations et prévisions météorologiques de plus de 4000 aéroports (messages METAR et TAF).

Les stations disponibles sont représentées par des disques jaunes et rouges sur la carte.

Passer la souris dessus pour voir le nom de la station.

Cliquer dessus pour voir les observations et prévisions météorologiques.

Pour changer de carte: cliquez sur les boutons verts avec une croix noire pour zoomer, sur le bouton vert avec un tiret pour effectuer un zoom arrière, ou sur les flèches vertes pour les cartes adjacentes.


METAR-TAF: